Terminal Aerodrome Forecast
Issued by NWS

Current Version | Previous Version | Text Only | Print | Product List | Glossary Off
Versions: 1 2 3 4 5 6 7 8 9 10 11 12 13 14 15 16 17 18 19 20 21

000
FTUS41 KPBZ 240520
TAFMGW
TAF
KMGW 240520Z 2406/2506 23005KT P6SM OVC050
     FM240900 24005KT 3SM BR BKN015
     FM241300 25005KT P6SM BKN015
     FM241400 26006KT P6SM BKN050
     FM241900 26008KT P6SM VCTS BKN050CB
     FM250100 30005KT P6SM SCT050=

USA.gov is the U.S. government's official web portal to all federal, state and local government web resources and services.